TZR weather

Bolton Field
Columbus, Ohio, United States

Public forecast

Using degrees Fahrenheit for public forecast. Weather courtesy of forecast.io.

Current aviation weather report (METAR) for Bolton Field

Retrieved 2019/10/17 12:50 UTC (1 hour ago):

KTZR 171250Z 30005KT 10SM SCT020 07/04 A2994

Closest aviation forecast (TAF) to Bolton Field

Closest forecast is Rickenbacker International Airport, 11.0 nm (20.3 km) ESE. Retrieved 2019/10/17 13:21 UTC (36 minutes ago):

TAF KLCK 171316Z 1713/1812 30010G18KT P6SM SCT040 BKN120 FM172300 30010KT P6SM BKN050 BKN120 FM180400 29005KT P6SM FEW050 FM180800 30003KT P6SM SKC